Terminal Aerodrome Forecast
Issued by NWS Wichita, KS

Home | Current Version | Previous Version | Text Only | Print | Product List | Glossary Off
Versions: 1 2 3 4 5 6 7 8 9 10 11 12 13 14 15 16 17 18 19 20 21 22

000
FTUS43 KICT 160702 AAA
TAFICT
TAF AMD
KICT 160702Z 1607/1706 16008KT P6SM SCT015 BKN040
     FM160900 16008KT 6SM BR BKN009
     FM161200 17009KT P6SM VCTS OVC008CB
     FM161400 18009KT P6SM BKN015
     FM162200 23012KT P6SM VCTS SCT050CB BKN080=

USA.gov is the U.S. government's official web portal to all federal, state and local government web resources and services.